createdAt,value
2022-12-31T00:00:09.636Z,68.88
2022-12-31T00:02:36.709Z,77.65
2022-12-31T00:05:04.630Z,84.35
2022-12-31T00:10:01.672Z,64.03
2022-12-31T00:12:28.767Z,69.05
2022-12-31T00:14:55.649Z,62.92
2022-12-31T00:17:22.581Z,61.53
2022-12-31T00:19:49.468Z,55.78
2022-12-31T00:22:16.406Z,51.50
2022-12-31T00:24:43.239Z,47.53
2022-12-31T00:27:10.176Z,47.88
2022-12-31T00:29:36.961Z,47.08
2022-12-31T00:32:03.944Z,45.33
2022-12-31T00:34:30.836Z,40.42
2022-12-31T00:36:57.715Z,41.10
2022-12-31T00:39:24.803Z,37.95
2022-12-31T00:41:51.717Z,37.85
2022-12-31T00:44:18.568Z,33.75
2022-12-31T00:49:11.531Z,40.50
2022-12-31T00:51:38.764Z,34.30
2022-12-31T00:54:05.835Z,34.60
2022-12-31T00:56:32.947Z,35.92
2022-12-31T00:59:00.482Z,40.92
2022-12-31T01:01:33.383Z,50.35
2022-12-31T01:04:05.046Z,66.57
2022-12-31T01:06:32.693Z,59.80
2022-12-31T01:08:59.709Z,63.50
2022-12-31T01:11:31.722Z,51.33
2022-12-31T01:14:08.575Z,53.05
2022-12-31T01:16:39.641Z,61.50
2022-12-31T01:19:10.279Z,61.97
2022-12-31T01:21:40.135Z,53.97
2022-12-31T01:24:08.420Z,60.17
2022-12-31T01:26:36.039Z,63.97
2022-12-31T01:29:04.085Z,58.63
2022-12-31T01:31:31.162Z,52.03
2022-12-31T01:33:58.534Z,49.97
2022-12-31T01:36:29.603Z,50.97
2022-12-31T01:38:58.152Z,52.20
2022-12-31T01:41:27.869Z,54.78
2022-12-31T01:43:57.584Z,47.72
2022-12-31T01:46:49.014Z,48.13
2022-12-31T01:49:32.048Z,47.88
2022-12-31T01:52:10.173Z,49.63
2022-12-31T01:54:42.206Z,51.03
2022-12-31T01:57:09.920Z,54.17
2022-12-31T01:59:37.762Z,51.45
2022-12-31T02:02:05.923Z,52.78
2022-12-31T02:04:32.925Z,52.58
2022-12-31T02:07:04.352Z,49.42
2022-12-31T02:09:32.461Z,51.75
2022-12-31T02:11:59.468Z,47.88
2022-12-31T02:14:34.035Z,51.70
2022-12-31T02:17:19.324Z,51.08
2022-12-31T02:20:03.235Z,54.40
2022-12-31T02:22:51.697Z,48.00
2022-12-31T02:25:33.058Z,49.72
2022-12-31T02:28:18.590Z,54.25
2022-12-31T02:30:50.535Z,48.53
2022-12-31T02:33:27.286Z,51.70
2022-12-31T02:38:34.125Z,49.65
2022-12-31T02:41:01.440Z,50.13
2022-12-31T02:43:28.645Z,51.42
2022-12-31T02:46:16.965Z,58.35
2022-12-31T02:49:09.175Z,55.28
2022-12-31T02:51:52.817Z,63.55
2022-12-31T02:54:32.220Z,54.47
2022-12-31T02:57:10.208Z,57.20
2022-12-31T03:00:26.923Z,50.47
2022-12-31T03:02:55.933Z,46.25
2022-12-31T03:05:27.068Z,44.20
2022-12-31T03:07:54.456Z,39.55
2022-12-31T03:10:21.817Z,44.97
2022-12-31T03:12:49.011Z,40.40
2022-12-31T03:15:24.127Z,38.08
2022-12-31T03:18:00.000Z,38.20
2022-12-31T03:20:57.186Z,44.35
2022-12-31T03:23:28.149Z,47.67
2022-12-31T03:25:56.566Z,56.47
2022-12-31T03:28:26.927Z,59.08
2022-12-31T03:30:57.008Z,53.25
2022-12-31T03:33:24.623Z,49.75
2022-12-31T03:35:52.495Z,48.20
2022-12-31T03:38:20.096Z,48.17
2022-12-31T03:40:49.766Z,53.38
2022-12-31T03:43:17.095Z,48.38
2022-12-31T03:45:44.117Z,46.85
2022-12-31T03:48:11.225Z,58.83
2022-12-31T03:50:38.089Z,62.97
2022-12-31T03:53:05.171Z,61.30
2022-12-31T03:55:32.035Z,57.95
2022-12-31T03:57:58.840Z,55.58
2022-12-31T04:00:25.835Z,48.65
2022-12-31T04:02:53.344Z,50.70
2022-12-31T04:05:21.084Z,56.25
2022-12-31T04:07:48.041Z,58.03
2022-12-31T04:10:17.731Z,56.28
2022-12-31T04:12:45.829Z,58.20
2022-12-31T04:15:18.451Z,54.13
2022-12-31T04:17:45.910Z,52.15
2022-12-31T04:20:12.845Z,47.28
2022-12-31T04:22:39.837Z,49.42
2022-12-31T04:25:11.615Z,45.40
2022-12-31T04:27:43.933Z,48.83
2022-12-31T04:30:12.203Z,52.70
2022-12-31T04:32:39.143Z,49.58
2022-12-31T04:35:07.713Z,53.55
2022-12-31T04:37:34.528Z,51.55
2022-12-31T04:40:05.972Z,59.60
2022-12-31T04:42:34.691Z,53.72
2022-12-31T04:45:01.563Z,55.65
2022-12-31T04:47:28.534Z,52.65
2022-12-31T04:49:55.679Z,55.97
2022-12-31T04:52:22.609Z,48.35
2022-12-31T04:54:49.422Z,46.40
2022-12-31T04:57:16.437Z,51.22
2022-12-31T04:59:43.262Z,51.88
2022-12-31T05:02:10.506Z,49.45
2022-12-31T05:04:37.669Z,53.17
2022-12-31T05:07:04.572Z,52.15
2022-12-31T05:09:31.443Z,53.47
2022-12-31T05:11:58.320Z,51.50
2022-12-31T05:14:25.760Z,48.10
2022-12-31T05:16:52.789Z,47.90
2022-12-31T05:19:19.820Z,47.38
2022-12-31T05:22:06.582Z,45.15
2022-12-31T05:24:33.513Z,49.67
2022-12-31T05:27:00.307Z,48.42
2022-12-31T05:29:27.122Z,50.00
2022-12-31T05:31:53.975Z,51.47
2022-12-31T05:34:20.764Z,44.88
2022-12-31T05:36:47.559Z,48.17
2022-12-31T05:39:14.497Z,51.85
2022-12-31T05:41:41.268Z,57.33
2022-12-31T05:44:08.171Z,51.28
2022-12-31T05:46:35.021Z,49.70
2022-12-31T05:49:01.826Z,50.67
2022-12-31T05:51:28.620Z,55.03
2022-12-31T05:53:55.463Z,56.15
2022-12-31T05:56:22.320Z,57.05
2022-12-31T05:58:49.178Z,57.00
2022-12-31T06:01:16.089Z,52.45
2022-12-31T06:03:43.046Z,61.28
2022-12-31T06:06:09.868Z,74.72
2022-12-31T06:08:36.865Z,81.07
2022-12-31T06:11:04.003Z,66.55
2022-12-31T06:13:30.840Z,63.00
2022-12-31T06:16:04.581Z,64.70
2022-12-31T06:18:31.409Z,60.63
2022-12-31T06:20:58.975Z,57.65
2022-12-31T06:23:25.852Z,67.70
2022-12-31T06:25:52.765Z,59.47
2022-12-31T06:28:20.624Z,58.00
2022-12-31T06:30:47.953Z,58.40
2022-12-31T06:33:14.822Z,54.85
2022-12-31T06:35:41.623Z,50.63
2022-12-31T06:38:08.506Z,45.53
2022-12-31T06:40:37.741Z,46.83
2022-12-31T06:43:04.542Z,42.97
2022-12-31T06:45:31.405Z,39.88
2022-12-31T06:47:58.207Z,46.15
2022-12-31T06:50:25.121Z,38.58
2022-12-31T06:52:51.959Z,42.10
2022-12-31T06:55:19.165Z,41.40
2022-12-31T06:57:46.350Z,45.55
2022-12-31T07:00:13.820Z,54.88
2022-12-31T07:03:08.167Z,51.45
2022-12-31T07:05:46.067Z,55.75
2022-12-31T07:08:40.292Z,58.35
2022-12-31T07:11:23.373Z,54.90
2022-12-31T07:14:20.407Z,60.50
2022-12-31T07:16:57.963Z,50.58
2022-12-31T07:19:57.870Z,48.33
2022-12-31T07:22:25.844Z,48.67
2022-12-31T07:24:52.921Z,45.75
2022-12-31T07:27:19.649Z,50.10
2022-12-31T07:30:17.185Z,48.45
2022-12-31T07:35:48.802Z,37.15
2022-12-31T07:38:36.065Z,34.08
2022-12-31T07:41:39.073Z,40.58
2022-12-31T07:44:25.054Z,36.08
2022-12-31T07:46:57.311Z,30.77
2022-12-31T07:49:25.582Z,27.83
2022-12-31T07:51:53.107Z,44.95
2022-12-31T07:54:21.014Z,44.70
2022-12-31T07:56:48.585Z,52.33
2022-12-31T07:59:44.327Z,43.05
2022-12-31T08:02:22.167Z,55.45
2022-12-31T08:05:11.300Z,51.17
2022-12-31T08:08:05.796Z,50.75
2022-12-31T08:10:36.523Z,48.13
2022-12-31T08:13:08.637Z,51.30
2022-12-31T08:15:38.097Z,51.15
2022-12-31T08:18:05.525Z,50.38
2022-12-31T08:20:34.367Z,35.38
2022-12-31T08:23:28.775Z,36.35
2022-12-31T08:26:11.922Z,44.47
2022-12-31T08:29:02.273Z,41.95
2022-12-31T08:31:45.305Z,48.30
2022-12-31T08:34:52.398Z,49.58
2022-12-31T08:37:26.662Z,47.58
2022-12-31T08:40:27.049Z,40.78
2022-12-31T08:43:09.044Z,38.00
2022-12-31T08:45:43.414Z,37.72
2022-12-31T08:48:24.773Z,35.25
2022-12-31T08:50:52.067Z,33.83
2022-12-31T08:53:19.156Z,38.80
2022-12-31T08:55:49.583Z,40.33
2022-12-31T08:58:34.444Z,39.40
2022-12-31T09:01:02.392Z,38.55
2022-12-31T09:03:50.480Z,42.42
2022-12-31T09:06:34.051Z,34.85
2022-12-31T09:09:42.810Z,36.45
2022-12-31T09:12:45.369Z,29.08
2022-12-31T09:15:21.199Z,28.73
2022-12-31T09:17:50.585Z,26.88
2022-12-31T09:20:42.818Z,28.13
2022-12-31T09:23:12.544Z,30.30
2022-12-31T09:25:52.060Z,37.28
2022-12-31T09:28:40.664Z,36.67
2022-12-31T09:31:26.660Z,30.42
2022-12-31T09:34:36.809Z,33.47
2022-12-31T09:37:13.859Z,33.10
2022-12-31T09:39:46.345Z,37.88
2022-12-31T09:42:43.008Z,35.72
2022-12-31T09:45:28.491Z,35.00
2022-12-31T09:48:37.622Z,40.20
2022-12-31T09:51:07.864Z,32.97
2022-12-31T09:54:12.044Z,36.92
2022-12-31T09:57:14.450Z,38.05
2022-12-31T09:59:53.423Z,35.42
2022-12-31T10:02:26.789Z,32.75
2022-12-31T10:05:18.567Z,32.42
2022-12-31T10:08:07.717Z,31.45
2022-12-31T10:10:47.109Z,36.67
2022-12-31T10:13:40.925Z,28.20
2022-12-31T10:16:11.011Z,30.75
2022-12-31T10:18:54.860Z,27.70
2022-12-31T10:21:38.107Z,28.15
2022-12-31T10:24:34.056Z,31.05
2022-12-31T10:27:51.792Z,28.70
2022-12-31T10:30:21.528Z,29.20
2022-12-31T10:33:07.353Z,29.35
2022-12-31T10:35:59.188Z,21.75
2022-12-31T10:38:55.899Z,17.17
2022-12-31T10:41:45.879Z,20.37
2022-12-31T10:44:31.363Z,14.82
2022-12-31T10:47:01.269Z,17.92
2022-12-31T10:50:03.841Z,19.40
2022-12-31T10:52:52.297Z,17.08
2022-12-31T10:55:49.782Z,17.08
2022-12-31T10:58:34.815Z,18.55
2022-12-31T11:01:17.101Z,15.82
2022-12-31T11:04:03.365Z,17.63
2022-12-31T11:06:49.663Z,24.03
2022-12-31T11:09:52.119Z,16.90
2022-12-31T11:12:46.695Z,16.98
2022-12-31T11:15:38.575Z,18.65
2022-12-31T11:18:36.407Z,17.13
2022-12-31T11:21:19.690Z,18.52
2022-12-31T11:24:04.121Z,20.45
2022-12-31T11:27:01.973Z,24.95
2022-12-31T11:29:43.345Z,19.38
2022-12-31T11:32:19.347Z,20.23
2022-12-31T11:34:55.627Z,23.08
2022-12-31T11:38:16.217Z,16.98
2022-12-31T11:41:15.356Z,20.05
2022-12-31T11:44:03.965Z,20.33
2022-12-31T11:46:59.889Z,19.45
2022-12-31T11:49:32.848Z,14.38
2022-12-31T11:52:21.663Z,16.30
2022-12-31T11:54:58.796Z,13.02
2022-12-31T11:57:36.677Z,14.00
2022-12-31T12:00:09.741Z,20.85
2022-12-31T12:02:43.000Z,13.80
2022-12-31T12:05:11.714Z,15.50
2022-12-31T12:07:38.992Z,16.05
2022-12-31T12:10:31.930Z,23.52
2022-12-31T12:13:26.844Z,17.95
2022-12-31T12:15:59.550Z,21.48
2022-12-31T12:18:50.818Z,18.20
2022-12-31T12:21:21.806Z,19.48
2022-12-31T12:23:56.100Z,17.73
2022-12-31T12:26:49.401Z,22.92
2022-12-31T12:29:23.656Z,21.85
2022-12-31T12:32:07.121Z,43.30
2022-12-31T12:34:36.658Z,19.73
2022-12-31T12:37:05.370Z,18.58
2022-12-31T12:39:33.767Z,14.05
2022-12-31T12:42:18.578Z,10.57
2022-12-31T12:44:45.499Z,10.70
2022-12-31T12:47:16.321Z,15.85
2022-12-31T12:49:47.373Z,15.55
2022-12-31T12:52:41.042Z,12.98
2022-12-31T12:55:33.462Z,21.35
2022-12-31T12:58:48.574Z,23.38
2022-12-31T13:01:35.044Z,14.80
2022-12-31T13:04:33.867Z,16.20
2022-12-31T13:07:46.532Z,22.25
2022-12-31T13:10:40.233Z,17.17
2022-12-31T13:13:25.947Z,17.45
2022-12-31T13:16:03.282Z,17.38
2022-12-31T13:18:54.537Z,25.02
2022-12-31T13:21:44.518Z,20.65
2022-12-31T13:24:19.422Z,28.00
2022-12-31T13:26:57.529Z,22.17
2022-12-31T13:29:28.931Z,16.40
2022-12-31T13:31:58.022Z,19.00
2022-12-31T13:34:30.738Z,17.80
2022-12-31T13:37:02.820Z,18.38
2022-12-31T13:39:33.580Z,19.95
2022-12-31T13:42:20.932Z,19.55
2022-12-31T13:44:54.230Z,18.52
2022-12-31T13:47:29.959Z,19.30
2022-12-31T13:50:14.253Z,20.73
2022-12-31T13:52:53.109Z,20.88
2022-12-31T13:55:41.964Z,22.83
2022-12-31T13:58:45.965Z,23.13
2022-12-31T14:01:33.894Z,29.27
2022-12-31T14:04:26.394Z,30.50
2022-12-31T14:07:07.564Z,28.53
2022-12-31T14:09:35.859Z,29.38
2022-12-31T14:12:30.008Z,36.33
2022-12-31T14:15:11.700Z,30.80
2022-12-31T14:18:04.335Z,29.52
2022-12-31T14:20:53.624Z,30.48
2022-12-31T14:23:40.498Z,31.52
2022-12-31T14:26:40.388Z,29.85
2022-12-31T14:29:15.064Z,27.83
2022-12-31T14:31:54.291Z,34.80
2022-12-31T14:34:53.178Z,43.50
2022-12-31T14:37:19.920Z,28.92
2022-12-31T14:40:06.601Z,33.58
2022-12-31T14:42:38.414Z,29.45
2022-12-31T14:45:42.462Z,30.88
2022-12-31T14:48:33.503Z,28.75
2022-12-31T14:51:03.184Z,42.05
2022-12-31T14:53:30.629Z,32.45
2022-12-31T14:56:01.985Z,32.55
2022-12-31T14:58:44.267Z,33.53
2022-12-31T15:01:22.781Z,36.20
2022-12-31T15:03:52.537Z,31.48
2022-12-31T15:06:47.306Z,42.60
2022-12-31T15:09:44.307Z,36.83
2022-12-31T15:12:52.688Z,35.70
2022-12-31T15:15:43.167Z,34.28
2022-12-31T15:18:29.366Z,38.92
2022-12-31T15:20:59.128Z,36.28
2022-12-31T15:23:38.282Z,35.70
2022-12-31T15:26:06.451Z,87.03
2022-12-31T15:28:39.713Z,112.40
2022-12-31T15:31:06.655Z,99.85
2022-12-31T15:33:53.058Z,80.80
2022-12-31T15:36:22.590Z,122.28
2022-12-31T15:38:50.677Z,109.28
2022-12-31T15:41:20.554Z,115.72
2022-12-31T15:43:49.844Z,98.97
2022-12-31T15:46:20.936Z,103.97
2022-12-31T15:49:01.987Z,93.30
2022-12-31T15:51:43.147Z,100.47
2022-12-31T15:54:23.091Z,112.30
2022-12-31T15:56:50.600Z,106.95
2022-12-31T15:59:18.596Z,106.10
2022-12-31T16:01:46.943Z,109.13
2022-12-31T16:04:39.480Z,96.75
2022-12-31T16:07:06.377Z,125.20
2022-12-31T16:09:35.998Z,132.68
2022-12-31T16:12:10.342Z,121.70
2022-12-31T16:14:43.847Z,119.93
2022-12-31T16:17:32.714Z,141.18
2022-12-31T16:20:01.804Z,192.30
2022-12-31T16:22:36.848Z,210.32
2022-12-31T16:25:30.285Z,185.43
2022-12-31T16:27:55.929Z,169.40
2022-12-31T16:30:29.616Z,163.32
2022-12-31T16:33:01.843Z,137.50
2022-12-31T16:35:30.883Z,126.95
2022-12-31T16:38:02.508Z,119.85
2022-12-31T16:40:29.892Z,136.98
2022-12-31T16:42:56.711Z,130.27
2022-12-31T16:45:36.641Z,130.77
2022-12-31T16:48:17.149Z,119.90
2022-12-31T16:50:47.249Z,93.90
2022-12-31T16:53:18.396Z,73.38
2022-12-31T16:55:54.042Z,65.43
2022-12-31T16:58:33.812Z,76.90
2022-12-31T17:01:09.639Z,92.57
2022-12-31T17:03:41.651Z,119.40
2022-12-31T17:06:12.791Z,112.95
2022-12-31T17:08:50.296Z,115.35
2022-12-31T17:11:34.818Z,123.55
2022-12-31T17:14:16.111Z,128.05
2022-12-31T17:17:03.330Z,145.90
2022-12-31T17:19:51.383Z,154.38
2022-12-31T17:22:34.226Z,160.93
2022-12-31T17:25:20.167Z,174.18
2022-12-31T17:27:57.981Z,219.10
2022-12-31T17:30:27.777Z,299.92
2022-12-31T17:33:13.256Z,295.42
2022-12-31T17:35:42.595Z,292.23
2022-12-31T17:38:21.060Z,311.45
2022-12-31T17:40:53.682Z,288.35
2022-12-31T17:43:23.057Z,240.95
2022-12-31T17:45:54.764Z,204.40
2022-12-31T17:48:24.816Z,149.00
2022-12-31T17:50:55.538Z,143.38
2022-12-31T17:53:23.078Z,150.70
2022-12-31T17:55:52.934Z,163.75
2022-12-31T17:58:42.625Z,152.18
2022-12-31T18:01:10.237Z,145.93
2022-12-31T18:03:37.474Z,141.73
2022-12-31T18:06:05.574Z,141.35
2022-12-31T18:08:32.465Z,262.10
2022-12-31T18:10:59.431Z,366.60
2022-12-31T18:13:27.740Z,246.50
2022-12-31T18:15:55.292Z,147.75
2022-12-31T18:18:29.604Z,164.77
2022-12-31T18:21:02.266Z,153.93
2022-12-31T18:23:35.195Z,146.77
2022-12-31T18:26:01.980Z,224.73
2022-12-31T18:28:28.797Z,313.50
2022-12-31T18:30:55.862Z,261.80
2022-12-31T18:33:24.044Z,256.40
2022-12-31T18:36:09.272Z,304.35
2022-12-31T18:38:37.052Z,300.77
2022-12-31T18:41:04.452Z,175.88
2022-12-31T18:43:31.935Z,183.30
2022-12-31T18:45:59.274Z,155.57
2022-12-31T18:48:26.260Z,169.40
2022-12-31T18:50:53.097Z,175.52
2022-12-31T18:53:23.109Z,166.90
2022-12-31T18:55:55.680Z,171.65
2022-12-31T18:58:23.438Z,172.05
2022-12-31T19:00:51.147Z,158.20
2022-12-31T19:03:22.132Z,167.52
2022-12-31T19:05:51.139Z,180.40
2022-12-31T19:08:19.695Z,167.90
2022-12-31T19:10:48.445Z,172.85
2022-12-31T19:13:17.567Z,162.40
2022-12-31T19:15:53.389Z,183.93
2022-12-31T19:18:20.257Z,186.00
2022-12-31T19:20:47.465Z,192.65
2022-12-31T19:23:20.589Z,186.60
2022-12-31T19:25:49.217Z,182.50
2022-12-31T19:28:27.050Z,189.15
2022-12-31T19:30:54.623Z,177.73
2022-12-31T19:33:21.901Z,167.52
2022-12-31T19:35:49.103Z,153.88
2022-12-31T19:38:22.829Z,157.77
2022-12-31T19:40:50.909Z,165.85
2022-12-31T19:43:20.432Z,175.43
2022-12-31T19:45:47.936Z,171.63
2022-12-31T19:48:24.683Z,187.73
2022-12-31T19:50:55.597Z,174.63
2022-12-31T19:53:25.844Z,170.10
2022-12-31T19:55:53.565Z,177.27
2022-12-31T19:58:26.568Z,193.00
2022-12-31T20:01:01.733Z,235.13
2022-12-31T20:03:30.142Z,250.60
2022-12-31T20:06:09.223Z,268.55
2022-12-31T20:08:38.340Z,226.82
2022-12-31T20:11:13.385Z,212.05
2022-12-31T20:13:41.224Z,201.93
2022-12-31T20:16:17.657Z,187.32
2022-12-31T20:18:45.945Z,180.95
2022-12-31T20:21:17.991Z,171.60
2022-12-31T20:23:45.184Z,170.90
2022-12-31T20:26:12.217Z,159.50
2022-12-31T20:28:39.431Z,171.32
2022-12-31T20:31:08.334Z,159.02
2022-12-31T20:33:35.650Z,129.90
2022-12-31T20:36:07.605Z,152.73
2022-12-31T20:38:34.723Z,146.70
2022-12-31T20:41:08.817Z,156.40
2022-12-31T20:43:37.133Z,162.30
2022-12-31T20:46:16.264Z,150.15
2022-12-31T20:48:44.540Z,147.75
2022-12-31T20:51:13.130Z,143.95
2022-12-31T20:53:40.764Z,149.57
2022-12-31T20:56:09.741Z,134.65
2022-12-31T20:58:37.143Z,121.25
2022-12-31T21:01:07.047Z,124.82
2022-12-31T21:04:07.010Z,111.63
2022-12-31T21:06:24.766Z,108.43
2022-12-31T21:08:51.695Z,105.70
2022-12-31T21:11:36.948Z,115.28
2022-12-31T21:14:04.093Z,128.15
2022-12-31T21:16:31.092Z,132.15
2022-12-31T21:18:58.407Z,138.13
2022-12-31T21:21:26.589Z,149.15
2022-12-31T21:23:53.620Z,148.20
2022-12-31T21:26:20.759Z,150.95
2022-12-31T21:28:47.648Z,152.95
2022-12-31T21:31:15.341Z,143.40
2022-12-31T21:33:46.784Z,145.70
2022-12-31T21:36:14.688Z,131.80
2022-12-31T21:38:41.730Z,132.23
2022-12-31T21:41:09.450Z,124.63
2022-12-31T21:43:36.324Z,126.22
2022-12-31T21:46:07.732Z,133.02
2022-12-31T21:48:34.991Z,132.02
2022-12-31T21:51:11.002Z,133.32
2022-12-31T21:53:38.048Z,118.70
2022-12-31T21:56:09.044Z,121.35
2022-12-31T21:58:38.449Z,127.85
2022-12-31T22:01:24.426Z,121.10
2022-12-31T22:03:52.067Z,118.17
2022-12-31T22:06:21.877Z,123.43
2022-12-31T22:08:54.761Z,118.97
2022-12-31T22:11:23.974Z,117.60
2022-12-31T22:13:51.842Z,119.82
2022-12-31T22:16:20.632Z,117.10
2022-12-31T22:18:48.683Z,117.15
2022-12-31T22:21:19.432Z,116.03
2022-12-31T22:23:49.344Z,109.68
2022-12-31T22:26:18.403Z,120.75
2022-12-31T22:28:46.546Z,115.43
2022-12-31T22:31:16.325Z,114.47
2022-12-31T22:33:44.189Z,132.57
2022-12-31T22:36:17.414Z,130.27
2022-12-31T22:38:44.608Z,113.60
2022-12-31T22:41:17.860Z,129.25
2022-12-31T22:43:49.151Z,127.28
2022-12-31T22:46:17.393Z,121.97
2022-12-31T22:48:45.005Z,123.05
2022-12-31T22:51:13.533Z,124.82
2022-12-31T22:53:41.739Z,118.55
2022-12-31T22:56:09.193Z,121.72
2022-12-31T22:58:36.884Z,111.65
2022-12-31T23:01:08.695Z,115.05
2022-12-31T23:03:35.856Z,115.65
2022-12-31T23:06:02.877Z,120.75
2022-12-31T23:08:29.694Z,136.05
2022-12-31T23:11:06.094Z,144.20
2022-12-31T23:16:46.435Z,141.00
2022-12-31T23:19:32.994Z,125.20
2022-12-31T23:22:18.652Z,122.13
2022-12-31T23:24:45.466Z,126.30
2022-12-31T23:27:12.360Z,129.77
2022-12-31T23:29:46.186Z,124.15
2022-12-31T23:32:16.993Z,117.70
2022-12-31T23:34:45.619Z,106.55
2022-12-31T23:37:15.895Z,103.20
2022-12-31T23:39:43.009Z,143.40
2022-12-31T23:42:10.372Z,100.00
2022-12-31T23:44:37.313Z,82.65
2022-12-31T23:47:04.251Z,91.63
2022-12-31T23:49:31.158Z,78.50
2022-12-31T23:51:57.992Z,79.47
2022-12-31T23:54:24.795Z,81.32
2022-12-31T23:56:51.626Z,86.82
2022-12-31T23:59:18.623Z,88.38
